Time;durP1;ratioP1;P1;durP2;ratioP2;P2;SDS_P1;SDS_P2;PMS_P1;PMS_P2;Temp;Humidity;BMP_temperature;BMP_pressure;BME280_temperature;BME280_humidity;BME280_pressure;Samples;Min_cycle;Max_cycle;Signal;HPM_P1;HPM_P2
2021/01/21 00:01:45;;;;;;;3.70;1.40;;;12.00;99.90;;;;;;4998154;28;20182;-89
2021/01/21 00:04:11;;;;;;;3.78;1.60;;;12.00;99.90;;;;;;4988261;28;20193;-90
2021/01/21 00:06:39;;;;;;;3.50;1.60;;;12.10;99.90;;;;;;4979014;28;20178;-90
2021/01/21 00:09:05;;;;;;;4.45;1.42;;;12.20;99.90;;;;;;4978607;28;20201;-91
2021/01/21 00:11:30;;;;;;;2.30;1.20;;;12.20;99.90;;;;;;4977643;28;20634;-91
2021/01/21 00:13:56;;;;;;;3.63;1.55;;;12.10;99.90;;;;;;4986828;28;20188;-89
2021/01/21 00:16:22;;;;;;;2.42;1.35;;;12.00;99.90;;;;;;4997144;28;20209;-91
2021/01/21 00:18:48;;;;;;;3.08;1.30;;;12.00;99.90;;;;;;4997014;28;20622;-88
2021/01/21 00:21:13;;;;;;;10.93;1.77;;;12.10;99.90;;;;;;4996749;28;20188;-90
2021/01/21 00:23:39;;;;;;;3.58;1.23;;;12.10;99.90;;;;;;4998276;28;20303;-88
2021/01/21 00:26:05;;;;;;;3.25;1.50;;;12.10;99.90;;;;;;4996229;28;20561;-89
2021/01/21 00:28:30;;;;;;;3.00;1.52;;;12.20;99.90;;;;;;4997983;28;20191;-89
2021/01/21 00:30:56;;;;;;;1.77;1.40;;;12.20;99.90;;;;;;4999132;28;20174;-90
2021/01/21 00:33:22;;;;;;;2.08;1.20;;;12.30;99.90;;;;;;4997334;28;20590;-89
2021/01/21 00:35:48;;;;;;;3.00;1.08;;;12.30;99.90;;;;;;4996468;28;20181;-90
2021/01/21 00:38:13;;;;;;;5.45;1.67;;;12.20;99.90;;;;;;4996316;28;20208;-89
2021/01/21 00:40:39;;;;;;;2.30;1.35;;;12.20;99.90;;;;;;4996352;28;20197;-89
2021/01/21 00:43:04;;;;;;;3.90;1.50;;;12.20;99.90;;;;;;4997289;28;20235;-88
2021/01/21 00:45:30;;;;;;;6.05;1.90;;;12.20;99.90;;;;;;4977132;28;20194;-90
2021/01/21 00:47:56;;;;;;;3.95;1.92;;;12.20;99.90;;;;;;4977425;28;20185;-91
2021/01/21 00:50:22;;;;;;;5.45;1.40;;;12.30;99.90;;;;;;4976946;28;20193;-90
2021/01/21 00:52:48;;;;;;;6.40;1.50;;;12.20;99.90;;;;;;4960551;28;20213;-89
2021/01/21 00:55:13;;;;;;;4.38;1.67;;;12.20;99.90;;;;;;4960638;28;20285;-89
2021/01/21 00:57:39;;;;;;;4.72;1.52;;;11.90;99.90;;;;;;4983770;28;20181;-89
2021/01/21 01:00:09;;;;;;;1.70;1.55;;;11.70;99.90;;;;;;4996407;28;20177;-91
2021/01/21 01:02:35;;;;;;;3.70;1.58;;;11.70;99.90;;;;;;4996344;28;20180;-91
2021/01/21 01:05:01;;;;;;;2.30;1.17;;;11.70;99.90;;;;;;4996880;28;20261;-88
2021/01/21 01:07:27;;;;;;;2.42;1.40;;;11.90;99.90;;;;;;4995893;28;20177;-90
2021/01/21 01:09:53;;;;;;;1.55;1.23;;;12.00;99.90;;;;;;4995920;28;20240;-89
2021/01/21 01:12:18;;;;;;;4.45;1.38;;;12.10;99.90;;;;;;4995883;28;20279;-90
2021/01/21 01:14:44;;;;;;;3.97;1.38;;;12.10;99.90;;;;;;4996816;28;20212;-91
2021/01/21 01:17:10;;;;;;;6.22;1.77;;;12.10;99.90;;;;;;4995880;28;20174;-91
2021/01/21 01:19:37;;;;;;;3.42;1.45;;;12.10;99.90;;;;;;4995329;28;20181;-90
2021/01/21 01:22:02;;;;;;;3.15;1.38;;;12.10;99.90;;;;;;4995321;28;20559;-91
2021/01/21 01:24:28;;;;;;;6.45;1.40;;;12.20;99.90;;;;;;4995373;28;20182;-91
2021/01/21 01:26:54;;;;;;;5.97;1.40;;;12.10;99.90;;;;;;4995747;28;20174;-90
2021/01/21 01:29:19;;;;;;;3.60;1.65;;;12.00;99.90;;;;;;4996353;28;20589;-91
2021/01/21 01:31:45;;;;;;;3.33;1.85;;;11.70;99.90;;;;;;4996251;28;20208;-89
2021/01/21 01:34:11;;;;;;;3.92;1.83;;;11.30;99.90;;;;;;4995317;28;20224;-88
2021/01/21 01:36:37;;;;;;;5.45;1.55;;;10.90;99.90;;;;;;4995331;28;20627;-91
2021/01/21 01:39:03;;;;;;;2.08;1.42;;;10.70;99.90;;;;;;5000663;28;20252;-89
2021/01/21 01:41:29;;;;;;;6.07;1.75;;;10.60;99.90;;;;;;4995452;28;20212;-88
2021/01/21 01:43:55;;;;;;;3.53;1.42;;;10.50;99.90;;;;;;4995064;28;20212;-89
2021/01/21 01:46:25;;;;;;;4.78;2.03;;;10.50;99.90;;;;;;4994916;28;20232;-88
2021/01/21 01:48:51;;;;;;;2.42;1.65;;;10.60;99.90;;;;;;4994603;28;20185;-88
2021/01/21 01:51:16;;;;;;;4.47;1.58;;;10.70;99.90;;;;;;4995138;28;20245;-88
2021/01/21 01:53:42;;;;;;;4.00;1.40;;;10.80;99.90;;;;;;4995330;28;20185;-89
2021/01/21 01:56:08;;;;;;;6.72;1.55;;;11.00;99.90;;;;;;4994812;28;20186;-88
2021/01/21 01:58:33;;;;;;;3.10;1.73;;;11.10;99.90;;;;;;4994531;28;20626;-88
2021/01/21 02:01:00;;;;;;;2.67;1.60;;;10.90;99.90;;;;;;4994754;28;20549;-89
2021/01/21 02:03:26;;;;;;;2.08;1.58;;;10.70;99.90;;;;;;4994854;28;20220;-88
2021/01/21 02:05:52;;;;;;;4.05;1.88;;;10.70;99.90;;;;;;5014529;28;20162;-90
2021/01/21 02:08:22;;;;;;;4.03;2.38;;;10.70;99.90;;;;;;5018088;28;20241;-92
2021/01/21 02:10:48;;;;;;;4.00;1.50;;;10.80;99.90;;;;;;5019093;28;20182;-91
2021/01/21 02:13:23;;;;;;;4.40;1.63;;;10.80;99.90;;;;;;5001782;28;20213;-88
2021/01/21 02:16:21;;;;;;;5.45;1.70;;;10.90;99.90;;;;;;4994432;28;20331;-90
2021/01/21 02:18:52;;;;;;;2.53;1.85;;;11.00;99.90;;;;;;4994678;28;20249;-91
2021/01/21 02:21:48;;;;;;;3.08;1.60;;;11.10;99.90;;;;;;4994427;28;20217;-88
2021/01/21 02:24:49;;;;;;;3.33;1.35;;;11.10;99.90;;;;;;5016862;28;20180;-90
2021/01/21 02:27:17;;;;;;;4.30;1.50;;;11.10;99.90;;;;;;4994165;28;20188;-90
2021/01/21 02:29:43;;;;;;;4.25;1.70;;;11.10;99.90;;;;;;5009330;28;20201;-90
2021/01/21 02:32:09;;;;;;;4.55;1.40;;;10.90;99.90;;;;;;4995358;28;20209;-90
2021/01/21 02:35:07;;;;;;;2.33;1.52;;;10.70;99.90;;;;;;4994115;28;20188;-88
2021/01/21 02:37:36;;;;;;;5.78;1.70;;;10.60;99.90;;;;;;4982777;28;20189;-88
2021/01/21 02:40:05;;;;;;;3.25;1.77;;;10.50;99.90;;;;;;4994432;28;20324;-89
2021/01/21 02:42:44;;;;;;;8.98;1.67;;;10.50;99.90;;;;;;4994369;28;20185;-90
2021/01/21 02:45:11;;;;;;;1.48;1.38;;;10.40;99.90;;;;;;4994422;28;20271;-91
2021/01/21 02:47:37;;;;;;;4.15;1.42;;;10.40;99.90;;;;;;4994235;28;20655;-91
2021/01/21 02:50:06;;;;;;;1.75;1.63;;;10.40;99.90;;;;;;4994986;28;20212;-90
2021/01/21 02:52:56;;;;;;;2.45;1.73;;;10.40;99.90;;;;;;4998038;28;20300;-91
2021/01/21 02:55:30;;;;;;;4.57;1.52;;;10.40;99.90;;;;;;4999907;28;20192;-91
2021/01/21 02:58:39;;;;;;;2.03;1.40;;;10.50;99.90;;;;;;4999453;28;20169;-92
2021/01/21 03:01:08;;;;;;;3.58;1.58;;;10.60;99.90;;;;;;4998904;28;20177;-89
2021/01/21 03:03:36;;;;;;;2.85;1.45;;;10.70;99.90;;;;;;5001709;28;20280;-90
2021/01/21 03:06:06;;;;;;;1.30;1.20;;;10.80;99.90;;;;;;5000494;28;20181;-90
2021/01/21 03:08:33;;;;;;;4.57;1.77;;;10.80;99.90;;;;;;4998125;28;20189;-89
2021/01/21 03:11:13;;;;;;;4.90;1.13;;;10.80;99.90;;;;;;5000371;28;20176;-94
2021/01/21 03:13:45;;;;;;;2.03;0.95;;;9.30;99.90;;;;;;5003918;28;20188;-93
2021/01/21 03:16:11;;;;;;;6.10;0.87;;;8.30;99.90;;;;;;4999622;28;20251;-91
2021/01/21 03:18:37;;;;;;;5.30;0.83;;;7.80;99.90;;;;;;4998266;28;20188;-91
2021/01/21 03:21:06;;;;;;;4.43;0.80;;;7.60;99.90;;;;;;4997609;28;20193;-91
2021/01/21 03:23:41;;;;;;;2.40;0.90;;;7.50;99.90;;;;;;4997580;28;20181;-91
2021/01/21 03:26:10;;;;;;;6.00;0.87;;;7.50;99.90;;;;;;4997763;28;20177;-91
2021/01/21 03:28:39;;;;;;;11.43;1.10;;;7.40;99.90;;;;;;4998224;28;20689;-92
2021/01/21 03:31:05;;;;;;;11.23;1.20;;;7.50;99.90;;;;;;4997606;28;20200;-92
2021/01/21 03:33:30;;;;;;;5.40;1.20;;;7.40;99.90;;;;;;4997477;28;20189;-92
2021/01/21 03:35:59;;;;;;;3.10;0.90;;;7.40;99.90;;;;;;4997883;28;20181;-92
2021/01/21 03:38:24;;;;;;;6.40;0.87;;;7.30;99.90;;;;;;4997081;28;20607;-91
2021/01/21 03:40:50;;;;;;;6.17;1.40;;;7.30;99.90;;;;;;4996932;28;20182;-90
2021/01/21 03:43:16;;;;;;;4.73;1.43;;;7.30;99.90;;;;;;4997108;28;20185;-90
2021/01/21 03:45:43;;;;;;;9.73;1.40;;;7.30;99.90;;;;;;4997445;28;20182;-91
2021/01/21 03:48:09;;;;;;;8.20;1.40;;;7.30;99.90;;;;;;4997135;28;20181;-91
2021/01/21 03:50:37;;;;;;;4.97;1.07;;;7.20;99.90;;;;;;4997201;28;20204;-91
2021/01/21 03:53:06;;;;;;;2.70;0.80;;;7.30;99.90;;;;;;4997036;28;20292;-92
2021/01/21 03:55:33;;;;;;;6.93;1.10;;;7.20;99.90;;;;;;4996904;28;20276;-91
2021/01/21 03:57:59;;;;;;;6.83;1.63;;;7.20;99.90;;;;;;4997203;28;20270;-93
2021/01/21 04:00:25;;;;;;;2.27;0.70;;;7.10;99.90;;;;;;4997576;28;20605;-91
2021/01/21 04:02:53;;;;;;;3.80;0.87;;;7.00;99.90;;;;;;4996180;28;20701;-91
2021/01/21 04:05:22;;;;;;;6.70;1.33;;;7.00;99.90;;;;;;4997117;28;20182;-93
2021/01/21 04:07:50;;;;;;;1.77;0.70;;;7.00;99.90;;;;;;4997277;28;20188;-91
2021/01/21 04:10:18;;;;;;;3.13;0.70;;;7.10;99.90;;;;;;4997146;28;20184;-93
2021/01/21 04:12:43;;;;;;;4.93;0.67;;;7.00;99.90;;;;;;4996694;28;20217;-92
2021/01/21 04:15:09;;;;;;;4.70;0.80;;;7.00;99.90;;;;;;4997100;28;20300;-93
2021/01/21 04:17:40;;;;;;;3.90;0.87;;;7.00;99.90;;;;;;5012606;28;20182;-91
2021/01/21 04:20:06;;;;;;;6.27;1.03;;;7.00;99.90;;;;;;5002826;28;20189;-91
2021/01/21 04:22:34;;;;;;;4.13;0.77;;;7.00;99.90;;;;;;4977064;28;20640;-91
2021/01/21 04:25:01;;;;;;;6.67;0.77;;;7.10;99.90;;;;;;4976992;28;20190;-92
2021/01/21 04:27:29;;;;;;;2.20;0.70;;;7.10;99.90;;;;;;4976794;28;20188;-92
2021/01/21 04:29:54;;;;;;;2.60;0.60;;;7.10;99.90;;;;;;4976840;28;20186;-91
2021/01/21 04:32:23;;;;;;;2.40;1.20;;;7.10;99.90;;;;;;4976663;28;20281;-91
2021/01/21 04:34:48;;;;;;;1.90;0.60;;;7.10;99.90;;;;;;4984181;28;20178;-91
2021/01/21 04:37:14;;;;;;;5.70;1.40;;;7.10;99.90;;;;;;5000842;28;20201;-93
2021/01/21 04:39:40;;;;;;;10.63;1.30;;;7.10;99.90;;;;;;5000128;28;20182;-92
2021/01/21 04:42:09;;;;;;;3.00;0.90;;;7.20;99.90;;;;;;4994969;28;20197;-92
2021/01/21 04:44:37;;;;;;;10.37;0.90;;;7.20;99.90;;;;;;4976929;28;20265;-91
2021/01/21 04:47:03;;;;;;;7.37;1.10;;;7.20;99.90;;;;;;4977013;28;20178;-93
2021/01/21 04:49:31;;;;;;;11.70;1.10;;;7.30;99.90;;;;;;4995245;28;20208;-91
2021/01/21 04:52:01;;;;;;;9.90;1.93;;;7.30;99.90;;;;;;4996993;28;20255;-90
2021/01/21 04:54:32;;;;;;;9.60;1.17;;;7.30;99.90;;;;;;5018990;28;20169;-86
2021/01/21 04:57:04;;;;;;;8.77;1.33;;;7.30;99.90;;;;;;4962871;28;20194;-91
2021/01/21 04:59:38;;;;;;;8.27;1.30;;;7.30;99.90;;;;;;4967219;29;20603;-92
2021/01/21 05:02:07;;;;;;;11.47;1.47;;;7.30;99.90;;;;;;4955999;29;20186;-92
2021/01/21 05:04:38;;;;;;;10.20;1.67;;;7.30;99.90;;;;;;4956406;29;20179;-91
2021/01/21 05:07:04;;;;;;;8.87;1.30;;;7.30;99.90;;;;;;4940330;29;20182;-91
2021/01/21 05:09:33;;;;;;;7.70;1.43;;;7.20;99.90;;;;;;4956439;29;20182;-90
2021/01/21 05:11:59;;;;;;;8.27;1.20;;;7.20;99.90;;;;;;4958227;29;20214;-91
2021/01/21 05:14:24;;;;;;;12.33;1.57;;;7.10;99.90;;;;;;4960715;29;20230;-90
2021/01/21 05:16:53;;;;;;;6.90;1.40;;;7.00;99.90;;;;;;4958075;29;20190;-91
2021/01/21 05:19:19;;;;;;;12.33;1.87;;;6.90;99.90;;;;;;4955986;29;20205;-90
2021/01/21 05:21:45;;;;;;;12.87;2.00;;;6.80;99.90;;;;;;4940008;29;20191;-89
2021/01/21 05:24:19;;;;;;;11.23;1.63;;;6.80;99.90;;;;;;4940336;29;20601;-91
2021/01/21 05:26:45;;;;;;;8.33;1.40;;;6.80;99.90;;;;;;4941185;28;20186;-92
2021/01/21 05:29:14;;;;;;;16.20;2.03;;;6.80;99.90;;;;;;5011734;28;20181;-90
2021/01/21 05:31:41;;;;;;;14.10;1.73;;;6.90;99.90;;;;;;4995417;28;20205;-91
2021/01/21 05:34:11;;;;;;;12.97;1.70;;;6.90;99.90;;;;;;4995019;28;20255;-93
2021/01/21 05:36:43;;;;;;;18.27;1.80;;;6.90;99.90;;;;;;4995347;28;20201;-91
2021/01/21 05:39:08;;;;;;;13.83;1.77;;;6.90;99.90;;;;;;4994988;28;20212;-92
2021/01/21 05:41:40;;;;;;;9.70;1.70;;;6.90;99.90;;;;;;4995202;28;20649;-93
2021/01/21 05:44:06;;;;;;;18.73;2.00;;;7.00;99.90;;;;;;4995217;28;20190;-92
2021/01/21 05:46:36;;;;;;;13.27;1.70;;;7.10;99.90;;;;;;4990139;28;20682;-92
2021/01/21 05:49:05;;;;;;;35.43;2.37;;;7.20;99.90;;;;;;4959887;28;20665;-92
2021/01/21 05:51:31;;;;;;;12.57;2.17;;;7.30;99.90;;;;;;4975319;28;20205;-92
2021/01/21 05:53:57;;;;;;;13.23;1.97;;;7.30;99.90;;;;;;4975699;28;20276;-91
2021/01/21 05:56:27;;;;;;;6.13;1.47;;;7.20;99.90;;;;;;4977001;28;20178;-92
2021/01/21 05:58:53;;;;;;;14.27;2.43;;;7.20;99.90;;;;;;4976568;28;20181;-91
2021/01/21 06:01:21;;;;;;;6.97;1.80;;;7.10;99.90;;;;;;4975591;28;20210;-92
2021/01/21 06:03:50;;;;;;;14.43;1.30;;;7.00;99.90;;;;;;4975542;28;20658;-91
2021/01/21 06:06:28;;;;;;;11.87;1.97;;;7.00;99.90;;;;;;4979563;28;20172;-93
2021/01/21 06:08:53;;;;;;;18.00;2.27;;;6.90;99.90;;;;;;4995441;28;20210;-93
2021/01/21 06:11:20;;;;;;;16.97;2.33;;;6.90;99.90;;;;;;4995032;28;20193;-93
2021/01/21 06:13:47;;;;;;;17.80;2.17;;;6.80;99.90;;;;;;4996652;28;20189;-93
2021/01/21 06:16:15;;;;;;;15.37;2.27;;;6.80;99.90;;;;;;4994430;28;20182;-93
2021/01/21 06:18:41;;;;;;;15.00;2.03;;;6.80;99.90;;;;;;4996027;28;20602;-92
2021/01/21 06:21:10;;;;;;;21.17;1.70;;;6.90;99.90;;;;;;4993770;28;20201;-93
2021/01/21 06:23:37;;;;;;;9.27;1.33;;;6.90;99.90;;;;;;4975435;28;20182;-94
2021/01/21 06:26:07;;;;;;;15.67;2.27;;;7.10;99.90;;;;;;4993778;28;20170;-94
2021/01/21 06:28:38;;;;;;;19.67;1.80;;;7.10;99.90;;;;;;5005289;28;20611;-93
2021/01/21 06:31:07;;;;;;;14.90;2.40;;;7.20;99.90;;;;;;4995381;28;20173;-94
2021/01/21 06:33:41;;;;;;;15.97;1.87;;;7.00;99.90;;;;;;4995091;28;20288;-93
2021/01/21 06:36:08;;;;;;;11.20;1.93;;;6.90;99.90;;;;;;4994327;28;20187;-93
2021/01/21 06:38:39;;;;;;;13.23;1.90;;;6.80;99.90;;;;;;4982352;28;20193;-92
2021/01/21 06:41:16;;;;;;;15.53;2.13;;;6.70;99.90;;;;;;4998259;28;20573;-94
2021/01/21 06:43:42;;;;;;;17.07;1.97;;;6.60;99.90;;;;;;4997902;28;20192;-93
2021/01/21 06:46:08;;;;;;;12.53;2.37;;;6.50;99.90;;;;;;4995499;28;20190;-93
2021/01/21 06:48:36;;;;;;;13.67;1.80;;;6.60;99.90;;;;;;4998034;28;20185;-94
2021/01/21 06:51:18;;;;;;;;;;;;;;;;;;;;;
2021/01/21 06:53:46;;;;;;;14.43;2.17;;;6.50;99.90;;;;;;5001440;28;20264;-90
2021/01/21 06:56:14;;;;;;;11.03;2.27;;;6.70;99.90;;;;;;4999602;28;20208;-92
2021/01/21 06:58:55;;;;;;;15.40;2.60;;;6.80;99.90;;;;;;5006314;28;20247;-92
2021/01/21 07:01:36;;;;;;;23.77;2.50;;;6.90;99.90;;;;;;5018189;28;20240;-92
2021/01/21 07:04:05;;;;;;;11.27;1.97;;;7.00;99.90;;;;;;5017974;28;20232;-92
2021/01/21 07:07:03;;;;;;;16.20;2.03;;;7.00;99.90;;;;;;5018040;28;20173;-93
2021/01/21 07:09:32;;;;;;;17.13;2.30;;;7.00;99.90;;;;;;5015755;28;20240;-92
2021/01/21 07:12:02;;;;;;;23.17;3.10;;;6.90;99.90;;;;;;5017656;28;20225;-93
2021/01/21 07:14:34;;;;;;;18.13;2.47;;;7.00;99.90;;;;;;5017718;28;20185;-92
2021/01/21 07:17:06;;;;;;;14.20;1.60;;;7.10;99.90;;;;;;5008687;28;20275;-93
2021/01/21 07:19:39;;;;;;;13.60;1.83;;;7.00;99.90;;;;;;4996472;28;20228;-93
2021/01/21 07:22:27;;;;;;;9.63;1.63;;;7.10;99.90;;;;;;4997799;28;20189;-92
2021/01/21 07:25:00;;;;;;;14.07;1.87;;;7.10;99.90;;;;;;5017552;28;20169;-92
2021/01/21 07:27:31;;;;;;;7.67;2.07;;;7.10;99.90;;;;;;5017730;28;20266;-93
2021/01/21 07:30:26;;;;;;;8.50;1.30;;;7.10;99.90;;;;;;4991008;28;20186;-92
2021/01/21 07:33:21;;;;;;;4.50;1.40;;;7.10;99.90;;;;;;4979850;28;20221;-92
2021/01/21 07:35:47;;;;;;;9.50;1.10;;;7.20;99.90;;;;;;4975828;28;20657;-92
2021/01/21 07:38:45;;;;;;;4.47;1.43;;;7.20;99.90;;;;;;5000449;28;20204;-92
2021/01/21 07:41:40;;;;;;;11.60;1.90;;;7.30;99.90;;;;;;5018107;28;20161;-92
2021/01/21 07:44:06;;;;;;;6.23;1.30;;;7.20;99.90;;;;;;5001128;28;20189;-94
2021/01/21 07:46:33;;;;;;;8.17;1.77;;;7.20;99.90;;;;;;4984544;28;20181;-92
2021/01/21 07:49:24;;;;;;;17.53;1.80;;;7.20;99.90;;;;;;4999435;28;20378;-92
2021/01/21 07:52:00;;;;;;;8.97;1.67;;;7.20;99.90;;;;;;5001067;28;20696;-92
2021/01/21 07:54:27;;;;;;;5.97;1.37;;;7.20;99.90;;;;;;5002698;28;20305;-93
2021/01/21 07:56:53;;;;;;;16.43;1.77;;;7.30;99.90;;;;;;5000234;28;20240;-93
2021/01/21 07:59:19;;;;;;;18.97;1.93;;;7.30;99.90;;;;;;4999693;28;20192;-93
2021/01/21 08:02:00;;;;;;;16.30;1.70;;;7.40;99.90;;;;;;4999999;28;20638;-92
2021/01/21 08:04:26;;;;;;;9.77;1.60;;;7.40;99.90;;;;;;4999713;28;20205;-92
2021/01/21 08:06:56;;;;;;;11.53;1.67;;;7.40;99.90;;;;;;4999647;28;20203;-92
2021/01/21 08:09:23;;;;;;;7.93;1.40;;;7.40;99.90;;;;;;4998669;28;20204;-93
2021/01/21 08:11:52;;;;;;;12.70;1.90;;;7.30;99.90;;;;;;4998307;28;20209;-92
2021/01/21 08:14:18;;;;;;;8.67;2.03;;;7.30;99.90;;;;;;4998783;28;20634;-93
2021/01/21 08:16:45;;;;;;;11.77;2.13;;;7.40;99.90;;;;;;4998130;28;20255;-92
2021/01/21 08:19:13;;;;;;;7.87;1.37;;;7.40;99.90;;;;;;4999662;28;20177;-94
2021/01/21 08:21:39;;;;;;;8.57;1.50;;;7.40;99.90;;;;;;4998949;28;20181;-93
2021/01/21 08:24:08;;;;;;;10.53;1.43;;;7.50;99.90;;;;;;4999707;28;20236;-93
2021/01/21 08:26:35;;;;;;;9.43;1.60;;;7.50;99.90;;;;;;4999857;28;20185;-93
2021/01/21 08:29:08;;;;;;;8.20;1.80;;;7.60;99.90;;;;;;5000240;28;20224;-92
2021/01/21 08:31:57;;;;;;;6.63;1.60;;;7.40;99.90;;;;;;4983625;28;20231;-92
2021/01/21 08:34:25;;;;;;;19.20;1.90;;;7.40;99.90;;;;;;5005156;28;20236;-91
2021/01/21 08:37:01;;;;;;;17.13;1.70;;;7.40;99.90;;;;;;4999687;28;20221;-91
2021/01/21 08:39:28;;;;;;;10.23;1.50;;;7.50;99.90;;;;;;4999062;28;20284;-90
2021/01/21 08:41:56;;;;;;;7.07;1.80;;;7.60;99.90;;;;;;4998438;28;20205;-91
2021/01/21 08:44:24;;;;;;;7.40;2.03;;;7.50;99.90;;;;;;5016479;28;20185;-92
2021/01/21 08:47:00;;;;;;;8.10;1.50;;;7.80;99.90;;;;;;4996439;28;20209;-91
2021/01/21 08:49:28;;;;;;;13.10;1.60;;;8.90;99.90;;;;;;4997494;28;20255;-91
2021/01/21 08:52:26;;;;;;;7.90;1.50;;;9.70;99.90;;;;;;4996904;28;20201;-91
2021/01/21 08:54:55;;;;;;;6.88;1.25;;;9.80;99.90;;;;;;5003759;28;20205;-90
2021/01/21 08:57:24;;;;;;;6.33;1.50;;;9.20;99.90;;;;;;4980759;28;20182;-91
2021/01/21 09:00:11;;;;;;;12.90;3.03;;;8.80;99.90;;;;;;4979484;28;20694;-95
2021/01/21 09:02:46;;;;;;;7.33;1.33;;;8.50;99.90;;;;;;4983625;28;20229;-90
2021/01/21 09:05:12;;;;;;;10.93;1.43;;;8.10;99.90;;;;;;5002134;28;20657;-90
2021/01/21 09:07:38;;;;;;;15.53;2.23;;;8.20;99.90;;;;;;4989281;28;20586;-90
2021/01/21 09:10:12;;;;;;;7.80;1.60;;;8.90;99.90;;;;;;5004383;28;20270;-90
2021/01/21 09:12:37;;;;;;;12.13;1.53;;;8.70;99.90;;;;;;5006667;28;20231;-91
2021/01/21 09:15:16;;;;;;;7.07;1.30;;;8.40;99.90;;;;;;5004693;28;20647;-90
2021/01/21 09:17:45;;;;;;;4.63;1.60;;;9.00;99.90;;;;;;5008121;28;20173;-91
2021/01/21 09:20:34;;;;;;;;;;;;;;;;;;;;;
2021/01/21 09:23:17;;;;;;;7.82;1.50;;;9.50;99.90;;;;;;5006878;28;20273;-90
2021/01/21 09:25:43;;;;;;;9.82;1.63;;;11.20;99.90;;;;;;4987367;28;20191;-90
2021/01/21 09:28:11;;;;;;;12.82;1.33;;;11.00;99.90;;;;;;4986500;28;20200;-89
2021/01/21 09:30:40;;;;;;;11.40;1.83;;;10.60;99.90;;;;;;4996973;28;20185;-90
2021/01/21 09:33:10;;;;;;;12.93;1.70;;;10.10;99.90;;;;;;5008522;28;20221;-89
2021/01/21 09:35:37;;;;;;;11.85;1.50;;;9.60;99.90;;;;;;5012491;28;20197;-87
2021/01/21 09:38:06;;;;;;;8.40;1.88;;;9.10;99.90;;;;;;5019394;28;20196;-89
2021/01/21 09:40:33;;;;;;;8.10;1.90;;;8.80;99.90;;;;;;5010444;28;20184;-91
2021/01/21 09:43:04;;;;;;;10.38;1.52;;;8.70;99.90;;;;;;4993205;28;20205;-88
2021/01/21 09:45:31;;;;;;;9.80;1.45;;;8.90;99.90;;;;;;4978034;28;20189;-89
2021/01/21 09:47:57;;;;;;;12.48;2.20;;;9.10;99.90;;;;;;4978598;28;20174;-90
2021/01/21 09:50:26;;;;;;;14.50;2.53;;;9.20;99.90;;;;;;4977835;28;20698;-89
2021/01/21 09:52:52;;;;;;;6.87;1.90;;;9.00;99.90;;;;;;4989067;28;20292;-89
2021/01/21 09:55:21;;;;;;;12.18;2.03;;;8.90;99.90;;;;;;4999603;28;20177;-89
2021/01/21 09:57:47;;;;;;;9.23;1.67;;;8.90;99.90;;;;;;4999244;28;20174;-92
2021/01/21 10:00:16;;;;;;;5.13;1.23;;;8.70;99.90;;;;;;4995354;28;20185;-91
2021/01/21 10:02:42;;;;;;;9.13;1.17;;;8.70;99.90;;;;;;4977919;28;20182;-90
2021/01/21 10:05:10;;;;;;;8.23;1.20;;;8.60;99.90;;;;;;4976014;28;20190;-92
2021/01/21 10:07:39;;;;;;;10.87;1.57;;;8.60;99.90;;;;;;4976068;28;20214;-91
2021/01/21 10:10:05;;;;;;;12.37;1.97;;;8.70;99.90;;;;;;4977621;28;20189;-91
2021/01/21 10:12:33;;;;;;;15.37;1.83;;;8.80;99.90;;;;;;4977295;28;20254;-90
2021/01/21 10:14:59;;;;;;;9.45;2.42;;;8.90;99.90;;;;;;4978365;28;20659;-90
2021/01/21 10:17:25;;;;;;;5.03;1.33;;;8.90;99.90;;;;;;4976591;28;20188;-91
2021/01/21 10:19:51;;;;;;;4.15;0.95;;;9.10;99.90;;;;;;4976514;28;20206;-91
2021/01/21 10:22:16;;;;;;;14.03;1.67;;;9.20;99.90;;;;;;4977346;28;20189;-91
2021/01/21 10:24:44;;;;;;;5.77;1.47;;;9.30;99.90;;;;;;4977363;28;20257;-91
2021/01/21 10:27:11;;;;;;;10.47;1.77;;;9.30;99.90;;;;;;4977573;28;20650;-89
2021/01/21 10:29:37;;;;;;;6.25;1.50;;;9.30;99.90;;;;;;4989320;28;20181;-91
2021/01/21 10:32:03;;;;;;;5.40;1.50;;;9.30;99.90;;;;;;4995557;28;20247;-89
2021/01/21 10:34:31;;;;;;;9.18;1.58;;;9.30;99.90;;;;;;4995658;28;20212;-89
2021/01/21 10:36:57;;;;;;;6.05;1.60;;;9.30;99.90;;;;;;4995220;28;20181;-90
2021/01/21 10:39:23;;;;;;;6.85;1.50;;;9.20;99.90;;;;;;4995684;28;20220;-91
2021/01/21 10:41:49;;;;;;;5.85;1.65;;;9.20;99.90;;;;;;4995663;28;20194;-90
2021/01/21 10:44:17;;;;;;;5.90;1.40;;;9.20;99.90;;;;;;5012127;28;20277;-91
2021/01/21 10:46:43;;;;;;;3.60;1.25;;;9.10;99.90;;;;;;4994689;28;20185;-90
2021/01/21 10:49:10;;;;;;;5.03;1.00;;;9.10;99.90;;;;;;4995460;28;20177;-91
2021/01/21 10:51:36;;;;;;;7.40;1.20;;;9.20;99.90;;;;;;4996190;28;20177;-91
2021/01/21 10:54:04;;;;;;;10.13;1.35;;;9.30;99.90;;;;;;4997961;28;20181;-90
2021/01/21 10:56:32;;;;;;;8.77;1.70;;;9.50;99.90;;;;;;4995211;28;20272;-90
2021/01/21 10:58:57;;;;;;;11.05;1.52;;;9.70;99.90;;;;;;4995336;28;20267;-90
2021/01/21 11:01:23;;;;;;;4.60;1.10;;;9.90;99.90;;;;;;4995540;28;20205;-90
2021/01/21 11:03:49;;;;;;;6.63;1.30;;;9.90;99.90;;;;;;4995307;28;20181;-92
2021/01/21 11:06:15;;;;;;;5.07;1.10;;;10.30;99.90;;;;;;4994450;28;20272;-88
2021/01/21 11:08:41;;;;;;;5.60;1.30;;;10.80;99.90;;;;;;5010448;28;20185;-88
2021/01/21 11:11:06;;;;;;;9.10;1.45;;;10.90;99.90;;;;;;4995163;28;20546;-86
2021/01/21 11:13:32;;;;;;;7.40;1.02;;;10.50;99.90;;;;;;4999607;28;20209;-88
2021/01/21 11:15:59;;;;;;;10.35;1.75;;;10.30;99.90;;;;;;4989645;28;20221;-89
2021/01/21 11:18:25;;;;;;;6.00;1.50;;;10.10;99.90;;;;;;4995961;28;20193;-88
2021/01/21 11:20:50;;;;;;;6.25;1.40;;;9.90;99.90;;;;;;4979379;28;20178;-89
2021/01/21 11:23:16;;;;;;;7.72;1.38;;;9.70;99.90;;;;;;4995077;28;20281;-88
2021/01/21 11:25:42;;;;;;;11.55;1.83;;;9.60;99.90;;;;;;4994981;28;20317;-89
2021/01/21 11:28:08;;;;;;;9.20;1.45;;;9.50;99.90;;;;;;4978894;28;20182;-88
2021/01/21 11:30:34;;;;;;;6.20;1.20;;;9.40;99.90;;;;;;4978256;28;20189;-88
2021/01/21 11:33:00;;;;;;;14.82;1.40;;;9.30;99.90;;;;;;4979297;28;20226;-88
2021/01/21 11:35:25;;;;;;;8.18;1.65;;;9.30;99.90;;;;;;4984917;28;20201;-89
2021/01/21 11:37:52;;;;;;;6.38;1.35;;;9.30;99.90;;;;;;5001315;28;20280;-88
2021/01/21 11:40:17;;;;;;;6.93;1.10;;;9.30;99.90;;;;;;4999577;28;20184;-89
2021/01/21 11:42:43;;;;;;;9.70;2.20;;;9.20;99.90;;;;;;5000151;28;20200;-89
2021/01/21 11:45:09;;;;;;;13.02;1.77;;;9.20;99.90;;;;;;4983431;28;20186;-89
2021/01/21 11:47:42;;;;;;;9.13;1.40;;;9.30;99.90;;;;;;4981382;28;20190;-89
2021/01/21 11:50:10;;;;;;;6.00;1.35;;;9.60;99.90;;;;;;4979393;28;20217;-89
2021/01/21 11:52:35;;;;;;;5.78;1.27;;;9.70;99.90;;;;;;4978943;28;20213;-88
2021/01/21 11:55:01;;;;;;;8.15;1.77;;;9.60;99.90;;;;;;4992880;28;20198;-86
2021/01/21 11:57:26;;;;;;;9.38;1.38;;;9.50;99.90;;;;;;4997161;28;20182;-88
2021/01/21 11:59:52;;;;;;;11.55;1.33;;;9.50;99.90;;;;;;5013514;28;20199;-88
2021/01/21 12:02:18;;;;;;;5.75;1.20;;;9.40;99.90;;;;;;4997024;28;20182;-88
2021/01/21 12:04:43;;;;;;;10.68;2.05;;;9.50;99.90;;;;;;4998667;28;20190;-88
2021/01/21 12:07:09;;;;;;;8.07;1.73;;;9.50;99.90;;;;;;5018372;28;20188;-88
2021/01/21 12:09:35;;;;;;;6.03;1.35;;;9.50;99.90;;;;;;5019640;28;20196;-89
2021/01/21 12:12:00;;;;;;;10.25;1.55;;;9.40;99.90;;;;;;5017516;28;20202;-87
2021/01/21 12:14:26;;;;;;;5.85;1.80;;;9.30;99.90;;;;;;5019481;28;20177;-88
2021/01/21 12:16:52;;;;;;;9.63;1.67;;;9.60;99.90;;;;;;5014429;28;20181;-86
2021/01/21 12:19:17;;;;;;;8.70;1.30;;;10.00;99.90;;;;;;4999574;28;20182;-88
2021/01/21 12:21:44;;;;;;;10.38;1.55;;;9.90;99.90;;;;;;5015149;28;20185;-87
2021/01/21 12:24:10;;;;;;;7.85;1.88;;;9.80;99.90;;;;;;4999920;28;20225;-87
2021/01/21 12:26:35;;;;;;;8.93;1.35;;;10.10;99.90;;;;;;5011677;28;20185;-86
2021/01/21 12:29:02;;;;;;;4.93;1.27;;;10.00;99.90;;;;;;5019643;28;20295;-87
2021/01/21 12:31:28;;;;;;;9.50;1.85;;;10.00;99.90;;;;;;5008738;28;20170;-86
2021/01/21 12:33:55;;;;;;;4.28;1.10;;;10.10;99.90;;;;;;4983250;28;20202;-86
2021/01/21 12:36:21;;;;;;;16.50;1.70;;;9.80;99.90;;;;;;4979368;28;20190;-85
2021/01/21 12:38:47;;;;;;;6.22;1.55;;;10.10;99.90;;;;;;4982777;28;20193;-87
2021/01/21 12:41:12;;;;;;;4.80;1.17;;;10.30;99.90;;;;;;4988977;28;20217;-86
2021/01/21 12:43:38;;;;;;;4.03;1.10;;;10.10;99.90;;;;;;4994122;28;20212;-87
2021/01/21 12:46:04;;;;;;;11.30;1.30;;;9.90;99.90;;;;;;4997092;28;20236;-88
2021/01/21 12:48:29;;;;;;;13.85;1.70;;;9.90;99.90;;;;;;4999797;28;20208;-89
2021/01/21 12:50:55;;;;;;;5.97;1.05;;;10.40;99.90;;;;;;4997379;28;20209;-88
2021/01/21 12:53:21;;;;;;;7.45;1.48;;;11.10;99.90;;;;;;4997150;28;20737;-88
2021/01/21 12:55:48;;;;;;;12.10;1.63;;;11.10;99.90;;;;;;5014864;28;20197;-87
2021/01/21 12:58:14;;;;;;;6.88;1.83;;;11.60;99.90;;;;;;4997781;28;20182;-89
2021/01/21 13:00:40;;;;;;;5.95;1.15;;;12.00;99.90;;;;;;4993641;28;20205;-89
2021/01/21 13:03:05;;;;;;;10.77;1.63;;;12.00;99.90;;;;;;4960089;28;20185;-89